Main page
METAR-TAF:

METAR-TAF

Airports :

Dallas/Fort Worth International Airport

Dallas / Fort Worth, Texas, United States

latitude: 32-53-49N, longitude: 097-01-19W, elevation: 600 ft

Current weather observation

The report was made 56 minutes ago, at 17:53 UTC
Calm wind
Temperature 86°F
Humidity 55%
Pressure 29.99 in. Hg
Visibility: 10 miles
Scattered clouds at a height of 3900 ft
Broken clouds at a height of 7000 ft

METAR: KDFW 121753Z 00000KT 10SM SCT039 BKN070 30/20 A2999 RMK AO2 SLP145 T03000200 10306 20233 58004

Time: 13:49 (18:49 UTC)

Forecast

The report was made 1 hour and 29 minutes ago, at 17:20 UTC
Forecast valid from 12 at 18 UTC to 13 at 24 UTC
Wind 8 mph from the East/Southeast
Visibility: 6 miles
Scattered clouds at a height of 3500 ft
Scattered clouds at a height of 8000 ft

TAF: KDFW 121720Z 1218/1324 12007KT P6SM SCT035 SCT080

Weather observations and forecasts of more than 4000 airports (METAR and TAF reports).

The available stations are represented by yellow and red dots on the map.

Hover mouse over dot to see the name of the station.

Then click to see weather observations and forecasts.

To change the map : click on the green buttons with a black cross to zoom in, on the green button with a dash to zoom out, or on the green arrows for adjacent maps.


METAR-TAF: